createdAt,value
2022-12-20T00:02:02.542Z,53.17
2022-12-20T00:04:32.854Z,53.43
2022-12-20T00:07:01.734Z,57.33
2022-12-20T00:09:30.653Z,50.47
2022-12-20T00:12:01.223Z,45.50
2022-12-20T00:14:30.158Z,46.47
2022-12-20T00:16:59.051Z,47.27
2022-12-20T00:19:28.009Z,43.80
2022-12-20T00:21:58.392Z,45.83
2022-12-20T00:24:27.249Z,43.03
2022-12-20T00:26:56.170Z,44.83
2022-12-20T00:29:25.172Z,49.53
2022-12-20T00:31:54.158Z,56.17
2022-12-20T00:34:23.096Z,55.50
2022-12-20T00:36:52.077Z,52.67
2022-12-20T00:39:22.410Z,54.83
2022-12-20T00:41:51.347Z,54.27
2022-12-20T00:44:20.386Z,54.33
2022-12-20T00:46:49.345Z,48.70
2022-12-20T00:49:18.427Z,56.13
2022-12-20T00:51:47.323Z,55.40
2022-12-20T00:54:16.316Z,55.77
2022-12-20T00:56:46.580Z,52.47
2022-12-20T00:59:15.505Z,46.73
2022-12-20T01:01:44.530Z,44.10
2022-12-20T01:04:13.671Z,48.63
2022-12-20T01:06:42.561Z,46.07
2022-12-20T01:09:12.807Z,48.43
2022-12-20T01:11:41.884Z,49.17
2022-12-20T01:14:15.700Z,50.73
2022-12-20T01:16:46.697Z,53.20
2022-12-20T01:19:17.662Z,47.63
2022-12-20T01:21:46.623Z,49.37
2022-12-20T01:24:16.487Z,47.90
2022-12-20T01:26:45.817Z,48.20
2022-12-20T01:29:16.370Z,53.90
2022-12-20T01:31:45.723Z,51.20
2022-12-20T01:34:15.516Z,51.23
2022-12-20T01:36:44.921Z,54.33
2022-12-20T01:39:16.213Z,49.10
2022-12-20T01:41:46.609Z,52.50
2022-12-20T01:44:54.187Z,53.93
2022-12-20T01:47:23.945Z,51.13
2022-12-20T01:49:55.639Z,53.30
2022-12-20T01:52:29.189Z,52.23
2022-12-20T01:55:04.036Z,52.93
2022-12-20T01:57:37.892Z,50.20
2022-12-20T02:00:10.287Z,47.93
2022-12-20T02:02:39.641Z,48.57
2022-12-20T02:05:09.486Z,49.97
2022-12-20T02:07:40.106Z,49.20
2022-12-20T02:10:10.505Z,47.43
2022-12-20T02:12:43.674Z,47.77
2022-12-20T02:15:42.474Z,48.77
2022-12-20T02:18:24.431Z,49.93
2022-12-20T02:21:23.408Z,49.27
2022-12-20T02:24:40.288Z,48.47
2022-12-20T02:27:33.219Z,49.63
2022-12-20T02:30:12.839Z,50.90
2022-12-20T02:32:48.496Z,50.73
2022-12-20T02:35:22.162Z,50.13
2022-12-20T02:37:56.416Z,50.03
2022-12-20T02:40:28.599Z,51.97
2022-12-20T02:43:00.540Z,51.73
2022-12-20T02:45:35.252Z,54.03
2022-12-20T02:48:08.187Z,52.63
2022-12-20T02:50:41.610Z,52.63
2022-12-20T02:53:10.842Z,52.20
2022-12-20T02:55:44.705Z,53.03
2022-12-20T02:58:20.017Z,57.20
2022-12-20T03:00:52.789Z,59.33
2022-12-20T03:03:25.266Z,53.57
2022-12-20T03:05:56.025Z,53.43
2022-12-20T03:08:26.233Z,54.20
2022-12-20T03:10:56.117Z,58.70
2022-12-20T03:13:25.830Z,66.00
2022-12-20T03:15:56.076Z,58.07
2022-12-20T03:18:25.148Z,63.33
2022-12-20T03:20:54.082Z,61.63
2022-12-20T03:23:23.079Z,53.73
2022-12-20T03:25:51.962Z,53.10
2022-12-20T03:28:20.809Z,52.80
2022-12-20T03:30:50.241Z,56.13
2022-12-20T03:33:20.644Z,59.33
2022-12-20T03:35:49.642Z,52.27
2022-12-20T03:38:18.550Z,61.20
2022-12-20T03:40:47.349Z,59.63
2022-12-20T03:43:17.391Z,59.13
2022-12-20T03:45:46.283Z,55.93
2022-12-20T03:48:15.660Z,54.17
2022-12-20T03:50:45.972Z,56.53
2022-12-20T03:53:15.012Z,56.20
2022-12-20T03:55:45.487Z,58.50
2022-12-20T03:58:15.000Z,58.40
2022-12-20T04:00:44.087Z,59.77
2022-12-20T04:03:13.094Z,56.00
2022-12-20T04:05:42.318Z,59.80
2022-12-20T04:08:12.855Z,58.87
2022-12-20T04:10:55.587Z,55.30
2022-12-20T04:13:24.431Z,55.60
2022-12-20T04:15:58.360Z,53.33
2022-12-20T04:18:29.360Z,52.50
2022-12-20T04:21:01.179Z,58.13
2022-12-20T04:23:31.800Z,57.20
2022-12-20T04:26:00.778Z,60.70
2022-12-20T04:28:29.951Z,60.73
2022-12-20T04:30:59.440Z,65.57
2022-12-20T04:33:29.098Z,59.50
2022-12-20T04:35:58.362Z,59.47
2022-12-20T04:38:27.277Z,59.53
2022-12-20T04:40:58.011Z,61.00
2022-12-20T04:43:27.324Z,65.83
2022-12-20T04:45:57.636Z,68.23
2022-12-20T04:51:18.322Z,57.73
2022-12-20T04:53:49.938Z,56.23
2022-12-20T04:56:22.676Z,59.53
2022-12-20T04:58:53.333Z,63.00
2022-12-20T05:01:22.956Z,67.53
2022-12-20T05:03:52.325Z,58.83
2022-12-20T05:06:21.360Z,61.40
2022-12-20T05:08:50.306Z,60.67
2022-12-20T05:11:20.666Z,59.77
2022-12-20T05:13:49.561Z,62.33
2022-12-20T05:16:18.608Z,58.33
2022-12-20T05:18:49.442Z,60.90
2022-12-20T05:21:35.998Z,78.93
2022-12-20T05:24:22.389Z,65.67
2022-12-20T05:26:52.711Z,57.90
2022-12-20T05:29:21.726Z,61.87
2022-12-20T05:31:50.728Z,58.97
2022-12-20T05:34:19.866Z,62.90
2022-12-20T05:36:48.779Z,60.67
2022-12-20T05:39:17.815Z,59.60
2022-12-20T05:41:46.754Z,57.97
2022-12-20T05:44:17.564Z,59.07
2022-12-20T05:46:46.526Z,65.40
2022-12-20T05:49:15.615Z,62.23
2022-12-20T05:51:44.512Z,67.53
2022-12-20T05:54:13.426Z,73.33
2022-12-20T05:56:42.552Z,64.77
2022-12-20T05:59:11.556Z,59.73
2022-12-20T06:01:42.275Z,58.30
2022-12-20T06:04:11.393Z,66.20
2022-12-20T06:06:40.381Z,75.20
2022-12-20T06:09:09.256Z,63.13
2022-12-20T06:11:38.122Z,72.93
2022-12-20T06:14:07.190Z,67.63
2022-12-20T06:16:36.933Z,59.90
2022-12-20T06:19:07.347Z,67.53
2022-12-20T06:21:36.277Z,63.90
2022-12-20T06:24:05.376Z,59.50
2022-12-20T06:26:36.430Z,59.83
2022-12-20T06:29:07.252Z,59.67
2022-12-20T06:31:36.302Z,62.00
2022-12-20T06:34:06.625Z,69.20
2022-12-20T06:36:35.618Z,65.43
2022-12-20T06:39:09.639Z,64.50
2022-12-20T06:41:39.017Z,70.13
2022-12-20T06:44:08.289Z,73.63
2022-12-20T06:46:37.344Z,95.00
2022-12-20T06:49:07.745Z,65.30
2022-12-20T06:51:36.705Z,74.40
2022-12-20T06:54:06.006Z,69.40
2022-12-20T06:56:41.088Z,60.83
2022-12-20T06:59:10.518Z,59.50
2022-12-20T07:01:39.670Z,53.77
2022-12-20T07:04:10.264Z,55.20
2022-12-20T07:06:39.199Z,55.67
2022-12-20T07:09:09.314Z,56.57
2022-12-20T07:11:39.869Z,54.23
2022-12-20T07:14:08.959Z,52.60
2022-12-20T07:16:38.417Z,51.17
2022-12-20T07:19:07.561Z,49.10
2022-12-20T07:21:37.749Z,51.97
2022-12-20T07:24:07.438Z,53.70
2022-12-20T07:26:36.652Z,53.10
2022-12-20T07:29:10.442Z,52.57
2022-12-20T07:31:42.620Z,49.37
2022-12-20T07:34:11.828Z,54.23
2022-12-20T07:36:42.699Z,47.80
2022-12-20T07:39:12.730Z,54.03
2022-12-20T07:41:42.203Z,51.87
2022-12-20T07:44:11.839Z,53.07
2022-12-20T07:46:41.012Z,53.83
2022-12-20T07:49:10.777Z,52.03
2022-12-20T07:51:45.123Z,49.67
2022-12-20T07:54:17.944Z,50.53
2022-12-20T07:56:49.476Z,54.70
2022-12-20T07:59:24.740Z,60.97
2022-12-20T08:01:58.018Z,51.67
2022-12-20T08:04:31.088Z,51.70
2022-12-20T08:07:03.878Z,55.83
2022-12-20T08:09:39.419Z,55.70
2022-12-20T08:12:11.828Z,52.90
2022-12-20T08:14:41.035Z,51.03
2022-12-20T08:17:11.421Z,60.87
2022-12-20T08:19:40.358Z,60.17
2022-12-20T08:22:10.780Z,59.27
2022-12-20T08:24:39.766Z,53.13
2022-12-20T08:27:09.598Z,56.97
2022-12-20T08:29:38.569Z,55.87
2022-12-20T08:32:07.630Z,56.83
2022-12-20T08:34:36.609Z,57.87
2022-12-20T08:37:12.411Z,52.70
2022-12-20T08:39:45.004Z,52.40
2022-12-20T08:42:14.258Z,53.60
2022-12-20T08:44:44.101Z,54.27
2022-12-20T08:47:13.101Z,51.97
2022-12-20T08:49:47.346Z,54.17
2022-12-20T08:52:17.025Z,52.90
2022-12-20T08:54:47.247Z,50.83
2022-12-20T08:57:16.154Z,49.63
2022-12-20T08:59:45.063Z,50.77
2022-12-20T09:02:15.020Z,55.80
2022-12-20T09:04:44.628Z,45.70
2022-12-20T09:07:13.822Z,52.27
2022-12-20T09:09:42.681Z,52.17
2022-12-20T09:12:13.065Z,53.50
2022-12-20T09:14:42.649Z,54.47
2022-12-20T09:17:11.555Z,49.77
2022-12-20T09:19:40.578Z,51.60
2022-12-20T09:22:09.934Z,53.47
2022-12-20T09:24:39.983Z,44.73
2022-12-20T09:27:08.886Z,45.40
2022-12-20T09:29:39.331Z,49.87
2022-12-20T09:32:09.747Z,44.83
2022-12-20T09:34:39.424Z,44.37
2022-12-20T09:37:08.371Z,44.77
2022-12-20T09:39:37.844Z,49.77
2022-12-20T09:42:10.608Z,49.73
2022-12-20T09:44:42.788Z,45.03
2022-12-20T09:47:16.818Z,48.47
2022-12-20T09:49:49.609Z,46.17
2022-12-20T09:52:35.273Z,48.67
2022-12-20T09:55:18.673Z,42.47
2022-12-20T09:58:07.800Z,43.67
2022-12-20T10:01:04.631Z,41.73
2022-12-20T10:04:02.588Z,41.10
2022-12-20T10:06:51.780Z,40.67
2022-12-20T10:09:41.696Z,41.67
2022-12-20T10:12:32.583Z,40.03
2022-12-20T10:15:32.902Z,39.87
2022-12-20T10:18:31.778Z,39.37
2022-12-20T10:21:24.455Z,45.30
2022-12-20T10:24:30.724Z,42.07
2022-12-20T10:27:20.978Z,44.63
2022-12-20T10:30:42.418Z,46.50
2022-12-20T10:33:37.962Z,46.60
2022-12-20T10:36:47.385Z,45.70
2022-12-20T10:39:27.324Z,47.40
2022-12-20T10:42:04.612Z,46.10
2022-12-20T10:44:35.392Z,46.93
2022-12-20T10:47:04.449Z,48.53
2022-12-20T10:49:37.130Z,50.43
2022-12-20T10:52:14.376Z,52.07
2022-12-20T10:54:44.546Z,44.63
2022-12-20T10:57:21.413Z,51.50
2022-12-20T10:59:54.199Z,50.03
2022-12-20T11:02:39.983Z,51.93
2022-12-20T11:05:25.433Z,48.50
2022-12-20T11:10:46.894Z,51.30
2022-12-20T11:13:25.977Z,52.40
2022-12-20T11:16:01.916Z,51.83
2022-12-20T11:18:41.495Z,47.83
2022-12-20T11:21:28.021Z,47.70
2022-12-20T11:24:03.806Z,41.97
2022-12-20T11:26:50.672Z,47.83
2022-12-20T11:29:32.944Z,48.47
2022-12-20T11:32:12.760Z,44.20
2022-12-20T11:34:50.395Z,40.67
2022-12-20T11:37:24.181Z,43.53
2022-12-20T11:40:18.334Z,46.40
2022-12-20T11:43:02.169Z,46.47
2022-12-20T11:45:38.791Z,46.93
2022-12-20T11:48:32.429Z,48.00
2022-12-20T11:51:07.572Z,40.93
2022-12-20T11:53:43.442Z,45.17
2022-12-20T11:56:17.420Z,44.43
2022-12-20T11:58:54.547Z,43.57
2022-12-20T12:01:27.430Z,40.47
2022-12-20T12:04:09.736Z,41.30
2022-12-20T12:06:42.470Z,45.70
2022-12-20T12:09:23.220Z,45.50
2022-12-20T12:12:06.607Z,45.93
2022-12-20T12:14:47.107Z,39.90
2022-12-20T12:17:26.169Z,39.57
2022-12-20T12:20:02.799Z,40.33
2022-12-20T12:22:37.142Z,39.10
2022-12-20T12:25:15.303Z,40.77
2022-12-20T12:27:44.638Z,45.93
2022-12-20T12:30:16.495Z,39.03
2022-12-20T12:32:50.740Z,46.40
2022-12-20T12:35:47.720Z,40.40
2022-12-20T12:38:58.360Z,37.63
2022-12-20T12:41:53.950Z,38.63
2022-12-20T12:44:40.891Z,39.03
2022-12-20T12:47:17.036Z,41.53
2022-12-20T12:49:49.846Z,38.90
2022-12-20T12:52:43.512Z,37.27
2022-12-20T12:55:42.305Z,44.30
2022-12-20T12:58:33.814Z,35.50
2022-12-20T13:01:05.619Z,39.03
2022-12-20T13:03:46.099Z,38.80
2022-12-20T13:07:04.080Z,40.33
2022-12-20T13:09:43.963Z,40.00
2022-12-20T13:12:49.961Z,39.40
2022-12-20T13:15:53.411Z,41.63
2022-12-20T13:18:30.464Z,48.00
2022-12-20T13:21:19.779Z,50.33
2022-12-20T13:23:48.722Z,45.47
2022-12-20T13:26:51.930Z,40.60
2022-12-20T13:29:27.188Z,37.33
2022-12-20T13:31:57.687Z,40.57
2022-12-20T13:34:53.916Z,41.77
2022-12-20T13:37:30.874Z,44.40
2022-12-20T13:40:02.236Z,39.90
2022-12-20T13:42:39.840Z,36.83
2022-12-20T13:45:14.767Z,45.23
2022-12-20T13:47:50.794Z,39.93
2022-12-20T13:50:38.824Z,41.50
2022-12-20T13:54:27.851Z,44.90
2022-12-20T13:56:56.900Z,37.93
2022-12-20T13:59:28.925Z,41.47
2022-12-20T14:02:01.255Z,43.80
2022-12-20T14:04:41.884Z,37.87
2022-12-20T14:07:14.632Z,40.83
2022-12-20T14:09:48.818Z,38.33
2022-12-20T14:12:25.520Z,46.70
2022-12-20T14:14:56.833Z,47.43
2022-12-20T14:17:27.696Z,45.87
2022-12-20T14:20:16.186Z,45.37
2022-12-20T14:22:54.409Z,48.30
2022-12-20T14:25:35.388Z,45.47
2022-12-20T14:28:04.989Z,38.87
2022-12-20T14:30:37.809Z,40.83
2022-12-20T14:33:06.904Z,36.83
2022-12-20T14:35:36.037Z,39.00
2022-12-20T14:38:05.093Z,42.30
2022-12-20T14:40:43.149Z,39.90
2022-12-20T14:43:17.456Z,37.00
2022-12-20T14:45:46.548Z,40.67
2022-12-20T14:48:18.468Z,40.73
2022-12-20T14:50:54.880Z,41.77
2022-12-20T14:53:28.998Z,43.53
2022-12-20T14:56:00.525Z,37.60
2022-12-20T14:58:31.024Z,41.83
2022-12-20T15:01:02.533Z,38.07
2022-12-20T15:03:31.837Z,38.87
2022-12-20T15:06:01.907Z,37.63
2022-12-20T15:08:33.109Z,35.20
2022-12-20T15:11:13.560Z,37.13
2022-12-20T15:13:44.009Z,35.17
2022-12-20T15:16:18.536Z,35.40
2022-12-20T15:18:47.746Z,36.07
2022-12-20T15:21:19.931Z,36.80
2022-12-20T15:23:51.581Z,37.53
2022-12-20T15:26:25.188Z,37.50
2022-12-20T15:28:54.797Z,38.63
2022-12-20T15:31:32.935Z,37.40
2022-12-20T15:34:05.190Z,35.40
2022-12-20T15:36:34.741Z,39.03
2022-12-20T15:39:12.618Z,37.70
2022-12-20T15:41:47.106Z,39.27
2022-12-20T15:44:19.211Z,38.00
2022-12-20T15:46:48.497Z,38.90
2022-12-20T15:49:18.691Z,39.67
2022-12-20T15:51:49.337Z,38.70
2022-12-20T15:54:25.110Z,38.10
2022-12-20T15:56:56.256Z,37.57
2022-12-20T15:59:58.459Z,37.40
2022-12-20T16:02:22.974Z,38.90
2022-12-20T16:04:52.482Z,36.53
2022-12-20T16:07:22.041Z,38.90
2022-12-20T16:09:51.023Z,36.37
2022-12-20T16:12:24.693Z,39.13
2022-12-20T16:14:53.767Z,40.27
2022-12-20T16:17:22.799Z,39.50
2022-12-20T16:19:51.886Z,39.50
2022-12-20T16:22:23.278Z,38.43
2022-12-20T16:24:52.935Z,48.67
2022-12-20T16:27:23.527Z,43.57
2022-12-20T16:29:52.626Z,41.70
2022-12-20T16:32:23.123Z,44.37
2022-12-20T16:34:52.754Z,42.27
2022-12-20T16:37:22.099Z,39.63
2022-12-20T16:39:51.123Z,42.50
2022-12-20T16:42:23.361Z,42.43
2022-12-20T16:44:54.549Z,43.67
2022-12-20T16:47:24.659Z,42.40
2022-12-20T16:49:53.997Z,46.00
2022-12-20T16:52:23.853Z,44.70
2022-12-20T16:54:53.776Z,44.10
2022-12-20T16:57:24.293Z,43.50
2022-12-20T16:59:53.319Z,44.57
2022-12-20T17:02:27.542Z,47.20
2022-12-20T17:04:56.887Z,46.73
2022-12-20T17:07:26.330Z,47.37
2022-12-20T17:10:10.705Z,45.83
2022-12-20T17:12:41.452Z,45.83
2022-12-20T17:15:17.891Z,44.80
2022-12-20T17:17:47.533Z,43.07
2022-12-20T17:20:17.637Z,42.23
2022-12-20T17:22:49.768Z,41.30
2022-12-20T17:25:26.027Z,42.77
2022-12-20T17:27:56.756Z,41.17
2022-12-20T17:30:27.035Z,43.13
2022-12-20T17:32:56.309Z,42.10
2022-12-20T17:35:28.910Z,41.90
2022-12-20T17:37:58.199Z,40.47
2022-12-20T17:40:29.047Z,43.20
2022-12-20T17:42:59.400Z,43.10
2022-12-20T17:45:31.414Z,41.70
2022-12-20T17:48:00.996Z,43.00
2022-12-20T17:50:30.100Z,44.27
2022-12-20T17:52:59.094Z,42.90
2022-12-20T17:55:29.616Z,43.57
2022-12-20T17:58:00.172Z,43.80
2022-12-20T18:00:38.569Z,45.77
2022-12-20T18:03:15.864Z,46.03
2022-12-20T18:06:03.841Z,45.27
2022-12-20T18:08:36.897Z,47.87
2022-12-20T18:11:06.315Z,47.07
2022-12-20T18:13:37.074Z,51.97
2022-12-20T18:16:07.310Z,49.93
2022-12-20T18:18:37.160Z,51.83
2022-12-20T18:21:07.994Z,50.40
2022-12-20T18:23:37.918Z,50.10
2022-12-20T18:26:12.650Z,50.23
2022-12-20T18:28:44.673Z,46.37
2022-12-20T18:31:18.549Z,46.10
2022-12-20T18:33:52.407Z,47.20
2022-12-20T18:36:26.246Z,45.50
2022-12-20T18:38:55.341Z,44.60
2022-12-20T18:41:26.809Z,45.23
2022-12-20T18:44:00.199Z,48.87
2022-12-20T18:46:30.068Z,49.87
2022-12-20T18:49:00.939Z,52.97
2022-12-20T18:51:32.894Z,57.10
2022-12-20T18:54:02.204Z,50.97
2022-12-20T18:56:32.885Z,48.33
2022-12-20T18:59:10.712Z,50.73
2022-12-20T19:01:42.808Z,49.70
2022-12-20T19:04:12.844Z,47.87
2022-12-20T19:06:42.832Z,46.33
2022-12-20T19:09:15.312Z,45.60
2022-12-20T19:11:44.515Z,59.50
2022-12-20T19:14:15.410Z,54.30
2022-12-20T19:16:45.151Z,55.90
2022-12-20T19:19:14.316Z,54.97
2022-12-20T19:21:45.102Z,55.73
2022-12-20T19:24:14.092Z,55.23
2022-12-20T19:26:43.077Z,57.17
2022-12-20T19:29:13.618Z,49.73
2022-12-20T19:31:42.828Z,47.83
2022-12-20T19:34:13.729Z,47.33
2022-12-20T19:36:45.305Z,47.27
2022-12-20T19:39:17.107Z,46.90
2022-12-20T19:42:06.804Z,45.87
2022-12-20T19:44:37.647Z,46.20
2022-12-20T19:47:06.954Z,48.70
2022-12-20T19:49:36.920Z,49.67
2022-12-20T19:52:06.909Z,48.03
2022-12-20T19:54:36.319Z,46.57
2022-12-20T19:57:05.601Z,45.40
2022-12-20T19:59:34.955Z,45.67
2022-12-20T20:02:05.460Z,48.73
2022-12-20T20:04:34.710Z,50.90
2022-12-20T20:07:04.808Z,50.77
2022-12-20T20:09:34.528Z,53.83
2022-12-20T20:12:03.683Z,50.53
2022-12-20T20:14:32.805Z,50.10
2022-12-20T20:17:01.828Z,53.20
2022-12-20T20:19:33.420Z,55.33
2022-12-20T20:22:02.550Z,57.57
2022-12-20T20:24:31.720Z,45.30
2022-12-20T20:27:00.814Z,44.27
2022-12-20T20:29:29.801Z,45.83
2022-12-20T20:31:58.924Z,46.63
2022-12-20T20:34:27.958Z,51.00
2022-12-20T20:36:58.466Z,50.27
2022-12-20T20:39:27.875Z,49.97
2022-12-20T20:41:56.866Z,43.87
2022-12-20T20:44:26.014Z,58.17
2022-12-20T20:46:55.188Z,46.83
2022-12-20T20:49:24.377Z,49.43
2022-12-20T20:51:53.381Z,43.77
2022-12-20T20:54:23.845Z,47.17
2022-12-20T20:56:52.850Z,44.93
2022-12-20T20:59:22.915Z,45.27
2022-12-20T21:01:52.014Z,44.27
2022-12-20T21:04:21.097Z,43.90
2022-12-20T21:06:50.088Z,43.87
2022-12-20T21:09:19.053Z,44.90
2022-12-20T21:11:49.511Z,41.80
2022-12-20T21:14:36.244Z,41.30
2022-12-20T21:17:07.674Z,42.67
2022-12-20T21:19:37.057Z,41.30
2022-12-20T21:22:06.035Z,39.67
2022-12-20T21:24:35.129Z,38.73
2022-12-20T21:27:05.667Z,39.17
2022-12-20T21:29:35.021Z,39.97
2022-12-20T21:32:04.225Z,36.23
2022-12-20T21:34:33.214Z,38.77
2022-12-20T21:39:36.917Z,39.53
2022-12-20T21:42:06.016Z,44.63
2022-12-20T21:44:35.106Z,42.67
2022-12-20T21:47:04.268Z,48.10
2022-12-20T21:49:33.273Z,44.23
2022-12-20T21:52:02.281Z,43.30
2022-12-20T21:56:50.620Z,45.03
2022-12-20T21:59:19.636Z,45.03
2022-12-20T22:01:49.051Z,50.40
2022-12-20T22:04:19.112Z,48.77
2022-12-20T22:06:48.173Z,50.60
2022-12-20T22:09:17.442Z,45.57
2022-12-20T22:11:50.562Z,43.30
2022-12-20T22:14:20.046Z,46.57
2022-12-20T22:16:49.352Z,42.90
2022-12-20T22:19:18.540Z,42.17
2022-12-20T22:21:50.987Z,40.00
2022-12-20T22:24:24.718Z,41.27
2022-12-20T22:26:55.171Z,40.63
2022-12-20T22:29:24.132Z,42.33
2022-12-20T22:31:53.191Z,41.73
2022-12-20T22:34:22.381Z,39.77
2022-12-20T22:36:51.526Z,40.03
2022-12-20T22:39:20.557Z,43.43
2022-12-20T22:41:49.459Z,43.87
2022-12-20T22:44:20.157Z,42.10
2022-12-20T22:46:49.157Z,43.97
2022-12-20T22:49:19.282Z,42.53
2022-12-20T22:51:59.347Z,42.20
2022-12-20T22:54:35.780Z,44.87
2022-12-20T22:57:05.039Z,46.63
2022-12-20T22:59:36.631Z,44.40
2022-12-20T23:02:05.773Z,48.77
2022-12-20T23:04:35.005Z,47.23
2022-12-20T23:07:04.271Z,44.77
2022-12-20T23:09:33.285Z,44.50
2022-12-20T23:12:19.640Z,43.30
2022-12-20T23:15:07.769Z,43.27
2022-12-20T23:17:36.963Z,45.80
2022-12-20T23:20:24.442Z,51.33
2022-12-20T23:22:53.436Z,48.87
2022-12-20T23:25:22.817Z,49.47
2022-12-20T23:27:52.286Z,50.70
2022-12-20T23:30:25.075Z,48.70
2022-12-20T23:32:56.294Z,49.87
2022-12-20T23:35:25.848Z,51.70
2022-12-20T23:37:56.017Z,50.40
2022-12-20T23:40:25.050Z,51.33
2022-12-20T23:42:55.650Z,53.80
2022-12-20T23:45:26.044Z,50.63
2022-12-20T23:47:55.026Z,50.57
2022-12-20T23:50:24.016Z,51.03
2022-12-20T23:52:52.999Z,50.70
2022-12-20T23:55:22.123Z,52.53
2022-12-20T23:57:51.107Z,50.57
